sensor_id;sensor_type;location;lat;lon;timestamp;P1;durP1;ratioP1;P2;durP2;ratioP2
38264;SDS011;24062;47.480;8.768;2023-01-05T00:02:09;3.10;;;1.53;;
38264;SDS011;24062;47.480;8.768;2023-01-05T00:04:36;1.77;;;1.23;;
38264;SDS011;24062;47.480;8.768;2023-01-05T00:07:02;1.93;;;1.20;;
38264;SDS011;24062;47.480;8.768;2023-01-05T00:09:29;2.00;;;1.37;;
38264;SDS011;24062;47.480;8.768;2023-01-05T00:11:56;2.43;;;1.60;;
38264;SDS011;24062;47.480;8.768;2023-01-05T00:14:41;1.73;;;1.30;;
38264;SDS011;24062;47.480;8.768;2023-01-05T00:17:26;1.90;;;1.40;;
38264;SDS011;24062;47.480;8.768;2023-01-05T00:20:12;1.70;;;1.30;;
38264;SDS011;24062;47.480;8.768;2023-01-05T00:22:58;4.53;;;1.43;;
38264;SDS011;24062;47.480;8.768;2023-01-05T00:25:26;2.83;;;1.30;;
38264;SDS011;24062;47.480;8.768;2023-01-05T00:27:54;1.70;;;1.20;;
38264;SDS011;24062;47.480;8.768;2023-01-05T00:30:23;1.90;;;1.13;;
38264;SDS011;24062;47.480;8.768;2023-01-05T00:32:53;1.80;;;1.30;;
38264;SDS011;24062;47.480;8.768;2023-01-05T00:35:20;1.90;;;1.50;;
38264;SDS011;24062;47.480;8.768;2023-01-05T00:37:48;2.47;;;1.13;;
38264;SDS011;24062;47.480;8.768;2023-01-05T00:40:15;2.07;;;1.50;;
38264;SDS011;24062;47.480;8.768;2023-01-05T00:42:44;1.87;;;1.07;;
38264;SDS011;24062;47.480;8.768;2023-01-05T00:45:12;1.50;;;1.07;;
38264;SDS011;24062;47.480;8.768;2023-01-05T00:47:41;5.20;;;1.30;;
38264;SDS011;24062;47.480;8.768;2023-01-05T00:50:11;2.13;;;1.20;;
38264;SDS011;24062;47.480;8.768;2023-01-05T00:52:40;1.77;;;1.23;;
38264;SDS011;24062;47.480;8.768;2023-01-05T00:55:07;1.50;;;0.90;;
38264;SDS011;24062;47.480;8.768;2023-01-05T00:57:34;1.87;;;1.07;;
38264;SDS011;24062;47.480;8.768;2023-01-05T01:00:02;1.40;;;0.77;;
38264;SDS011;24062;47.480;8.768;2023-01-05T01:02:29;1.60;;;0.93;;
38264;SDS011;24062;47.480;8.768;2023-01-05T01:04:56;1.43;;;0.87;;
38264;SDS011;24062;47.480;8.768;2023-01-05T01:07:25;1.30;;;0.80;;
38264;SDS011;24062;47.480;8.768;2023-01-05T01:09:52;1.90;;;1.30;;
38264;SDS011;24062;47.480;8.768;2023-01-05T01:12:19;1.40;;;0.80;;
38264;SDS011;24062;47.480;8.768;2023-01-05T01:14:46;2.60;;;0.97;;
38264;SDS011;24062;47.480;8.768;2023-01-05T01:17:13;1.87;;;0.60;;
38264;SDS011;24062;47.480;8.768;2023-01-05T01:19:41;1.40;;;0.83;;
38264;SDS011;24062;47.480;8.768;2023-01-05T01:22:10;1.60;;;1.07;;
38264;SDS011;24062;47.480;8.768;2023-01-05T01:24:38;1.60;;;1.00;;
38264;SDS011;24062;47.480;8.768;2023-01-05T01:27:05;1.37;;;0.67;;
38264;SDS011;24062;47.480;8.768;2023-01-05T01:29:32;1.30;;;0.70;;
38264;SDS011;24062;47.480;8.768;2023-01-05T01:31:59;1.97;;;1.03;;
38264;SDS011;24062;47.480;8.768;2023-01-05T01:34:26;1.40;;;0.73;;
38264;SDS011;24062;47.480;8.768;2023-01-05T01:36:53;1.50;;;0.70;;
38264;SDS011;24062;47.480;8.768;2023-01-05T01:39:20;1.53;;;0.70;;
38264;SDS011;24062;47.480;8.768;2023-01-05T01:41:49;1.50;;;0.83;;
38264;SDS011;24062;47.480;8.768;2023-01-05T01:47:16;1.40;;;0.80;;
38264;SDS011;24062;47.480;8.768;2023-01-05T01:49:49;1.47;;;0.63;;
38264;SDS011;24062;47.480;8.768;2023-01-05T01:52:17;2.43;;;0.90;;
38264;SDS011;24062;47.480;8.768;2023-01-05T01:54:47;1.47;;;0.70;;
38264;SDS011;24062;47.480;8.768;2023-01-05T01:57:17;1.40;;;0.70;;
38264;SDS011;24062;47.480;8.768;2023-01-05T01:59:44;1.20;;;0.60;;
38264;SDS011;24062;47.480;8.768;2023-01-05T02:02:11;1.70;;;0.77;;
38264;SDS011;24062;47.480;8.768;2023-01-05T02:04:38;1.20;;;0.60;;
38264;SDS011;24062;47.480;8.768;2023-01-05T02:07:06;1.40;;;0.70;;
38264;SDS011;24062;47.480;8.768;2023-01-05T02:09:37;2.03;;;0.60;;
38264;SDS011;24062;47.480;8.768;2023-01-05T02:12:06;1.20;;;0.50;;
38264;SDS011;24062;47.480;8.768;2023-01-05T02:14:46;1.40;;;0.70;;
38264;SDS011;24062;47.480;8.768;2023-01-05T02:17:21;1.20;;;0.50;;
38264;SDS011;24062;47.480;8.768;2023-01-05T02:20:11;1.40;;;0.60;;
38264;SDS011;24062;47.480;8.768;2023-01-05T02:23:14;1.60;;;0.80;;
38264;SDS011;24062;47.480;8.768;2023-01-05T02:26:18;1.50;;;0.80;;
38264;SDS011;24062;47.480;8.768;2023-01-05T02:29:27;1.53;;;0.80;;
38264;SDS011;24062;47.480;8.768;2023-01-05T02:32:09;1.33;;;0.57;;
38264;SDS011;24062;47.480;8.768;2023-01-05T02:34:46;1.90;;;0.80;;
38264;SDS011;24062;47.480;8.768;2023-01-05T02:37:18;1.40;;;0.70;;
38264;SDS011;24062;47.480;8.768;2023-01-05T02:39:55;1.50;;;0.60;;
38264;SDS011;24062;47.480;8.768;2023-01-05T02:42:25;1.47;;;0.60;;
38264;SDS011;24062;47.480;8.768;2023-01-05T02:44:54;1.30;;;0.67;;
38264;SDS011;24062;47.480;8.768;2023-01-05T02:47:39;1.20;;;0.60;;
38264;SDS011;24062;47.480;8.768;2023-01-05T02:50:08;1.40;;;0.63;;
38264;SDS011;24062;47.480;8.768;2023-01-05T02:52:43;1.13;;;0.50;;
38264;SDS011;24062;47.480;8.768;2023-01-05T02:55:15;1.33;;;0.70;;
38264;SDS011;24062;47.480;8.768;2023-01-05T02:57:47;1.70;;;0.60;;
38264;SDS011;24062;47.480;8.768;2023-01-05T03:00:17;1.10;;;0.60;;
38264;SDS011;24062;47.480;8.768;2023-01-05T03:02:51;2.17;;;0.73;;
38264;SDS011;24062;47.480;8.768;2023-01-05T03:05:22;1.20;;;0.67;;
38264;SDS011;24062;47.480;8.768;2023-01-05T03:07:52;1.33;;;0.70;;
38264;SDS011;24062;47.480;8.768;2023-01-05T03:10:31;1.20;;;0.53;;
38264;SDS011;24062;47.480;8.768;2023-01-05T03:13:24;1.33;;;0.60;;
38264;SDS011;24062;47.480;8.768;2023-01-05T03:16:08;1.70;;;1.00;;
38264;SDS011;24062;47.480;8.768;2023-01-05T03:18:38;1.40;;;0.70;;
38264;SDS011;24062;47.480;8.768;2023-01-05T03:21:20;1.80;;;0.80;;
38264;SDS011;24062;47.480;8.768;2023-01-05T03:23:48;2.40;;;0.90;;
38264;SDS011;24062;47.480;8.768;2023-01-05T03:26:33;1.60;;;0.83;;
38264;SDS011;24062;47.480;8.768;2023-01-05T03:29:18;1.40;;;0.70;;
38264;SDS011;24062;47.480;8.768;2023-01-05T03:32:04;1.50;;;0.70;;
38264;SDS011;24062;47.480;8.768;2023-01-05T03:34:55;1.50;;;0.70;;
38264;SDS011;24062;47.480;8.768;2023-01-05T03:37:46;1.73;;;0.70;;
38264;SDS011;24062;47.480;8.768;2023-01-05T03:40:19;1.60;;;0.80;;
38264;SDS011;24062;47.480;8.768;2023-01-05T03:42:48;1.50;;;0.83;;
38264;SDS011;24062;47.480;8.768;2023-01-05T03:45:15;2.80;;;0.60;;
38264;SDS011;24062;47.480;8.768;2023-01-05T03:47:43;1.40;;;0.73;;
38264;SDS011;24062;47.480;8.768;2023-01-05T03:50:12;1.83;;;0.90;;
38264;SDS011;24062;47.480;8.768;2023-01-05T03:52:39;1.60;;;0.90;;
38264;SDS011;24062;47.480;8.768;2023-01-05T03:55:06;1.43;;;0.80;;
38264;SDS011;24062;47.480;8.768;2023-01-05T03:57:33;4.50;;;0.80;;
38264;SDS011;24062;47.480;8.768;2023-01-05T04:00:00;1.60;;;0.90;;
38264;SDS011;24062;47.480;8.768;2023-01-05T04:02:27;1.53;;;0.80;;
38264;SDS011;24062;47.480;8.768;2023-01-05T04:04:54;1.60;;;1.13;;
38264;SDS011;24062;47.480;8.768;2023-01-05T04:07:22;2.30;;;0.90;;
38264;SDS011;24062;47.480;8.768;2023-01-05T04:09:49;3.00;;;0.90;;
38264;SDS011;24062;47.480;8.768;2023-01-05T04:12:16;2.30;;;0.90;;
38264;SDS011;24062;47.480;8.768;2023-01-05T04:14:43;1.70;;;1.10;;
38264;SDS011;24062;47.480;8.768;2023-01-05T04:17:10;1.60;;;1.00;;
38264;SDS011;24062;47.480;8.768;2023-01-05T04:19:37;1.40;;;0.90;;
38264;SDS011;24062;47.480;8.768;2023-01-05T04:22:04;2.63;;;0.80;;
38264;SDS011;24062;47.480;8.768;2023-01-05T04:24:32;1.30;;;0.70;;
38264;SDS011;24062;47.480;8.768;2023-01-05T04:26:59;1.57;;;0.87;;
38264;SDS011;24062;47.480;8.768;2023-01-05T04:29:26;1.40;;;0.80;;
38264;SDS011;24062;47.480;8.768;2023-01-05T04:31:53;2.47;;;1.00;;
38264;SDS011;24062;47.480;8.768;2023-01-05T04:34:20;1.63;;;0.97;;
38264;SDS011;24062;47.480;8.768;2023-01-05T04:36:47;1.50;;;0.80;;
38264;SDS011;24062;47.480;8.768;2023-01-05T04:39:14;1.40;;;0.90;;
38264;SDS011;24062;47.480;8.768;2023-01-05T04:41:42;1.57;;;0.80;;
38264;SDS011;24062;47.480;8.768;2023-01-05T04:46:34;2.00;;;1.00;;
38264;SDS011;24062;47.480;8.768;2023-01-05T06:06:13;1.20;;;0.60;;
38264;SDS011;24062;47.480;8.768;2023-01-05T06:08:40;1.30;;;0.67;;
38264;SDS011;24062;47.480;8.768;2023-01-05T06:11:06;1.23;;;0.60;;
38264;SDS011;24062;47.480;8.768;2023-01-05T06:13:33;1.27;;;0.60;;
38264;SDS011;24062;47.480;8.768;2023-01-05T06:16:00;1.20;;;0.50;;
38264;SDS011;24062;47.480;8.768;2023-01-05T06:18:27;1.20;;;0.60;;
38264;SDS011;24062;47.480;8.768;2023-01-05T06:20:55;1.10;;;0.50;;
38264;SDS011;24062;47.480;8.768;2023-01-05T06:23:22;1.10;;;0.50;;
38264;SDS011;24062;47.480;8.768;2023-01-05T06:25:49;4.87;;;0.70;;
38264;SDS011;24062;47.480;8.768;2023-01-05T06:28:16;1.20;;;0.60;;
38264;SDS011;24062;47.480;8.768;2023-01-05T06:30:43;1.20;;;0.60;;
38264;SDS011;24062;47.480;8.768;2023-01-05T06:34:56;1.20;;;0.50;;
